createdAt,value
2023-01-19T00:01:55.856Z,1.8
2023-01-19T00:07:02.257Z,1.8
2023-01-19T00:12:33.266Z,1.9
2023-01-19T00:27:51.453Z,1.9
2023-01-19T00:33:18.932Z,1.9
2023-01-19T00:37:41.256Z,1.9
2023-01-19T00:42:47.620Z,2.0
2023-01-19T00:47:54.092Z,2.0
2023-01-19T00:53:20.499Z,2.0
2023-01-19T00:58:26.863Z,2.0
2023-01-19T01:03:13.382Z,2.0
2023-01-19T01:14:20.218Z,2.0
2023-01-19T01:28:45.271Z,2.0
2023-01-19T01:33:51.628Z,2.0
2023-01-19T01:38:58.030Z,2.0
2023-01-19T01:44:04.411Z,2.0
2023-01-19T01:49:10.780Z,2.0
2023-01-19T01:54:17.185Z,2.0
2023-01-19T01:59:47.592Z,1.9
2023-01-19T02:04:29.948Z,1.9
2023-01-19T02:09:36.358Z,1.9
2023-01-19T02:14:42.892Z,1.9
2023-01-19T02:20:13.514Z,1.8
2023-01-19T02:24:55.873Z,1.8
2023-01-19T02:30:02.215Z,1.8
2023-01-19T02:36:40.780Z,1.8
2023-01-19T02:40:15.002Z,1.7
2023-01-19T02:55:58.218Z,1.7
2023-01-19T03:01:00.687Z,1.7
2023-01-19T03:05:47.515Z,1.6
2023-01-19T03:10:53.878Z,1.6
2023-01-19T03:16:00.416Z,1.6
2023-01-19T03:21:06.681Z,1.6
2023-01-19T03:31:19.762Z,1.6
2023-01-19T03:36:50.103Z,1.6
2023-01-19T03:41:56.485Z,1.6
2023-01-19T03:46:58.898Z,1.7
2023-01-19T03:52:57.651Z,1.6
2023-01-19T03:56:51.657Z,1.6
2023-01-19T04:01:48.191Z,1.6
2023-01-19T04:07:04.673Z,1.7
2023-01-19T04:12:31.039Z,1.7
2023-01-19T04:22:27.451Z,1.7
2023-01-19T04:27:57.799Z,1.7
2023-01-19T04:33:00.637Z,1.7
2023-01-19T04:43:06.986Z,1.7
2023-01-19T04:47:59.336Z,1.7
2023-01-19T04:53:05.751Z,1.7
2023-01-19T04:58:12.092Z,1.6
2023-01-19T05:03:18.511Z,1.6
2023-01-19T05:08:25.028Z,1.6
2023-01-19T05:13:31.391Z,1.6
2023-01-19T05:18:37.807Z,1.5
2023-01-19T05:24:08.528Z,1.5
2023-01-19T05:28:50.539Z,1.5
2023-01-19T05:33:56.897Z,1.5
2023-01-19T05:39:03.279Z,1.4
2023-01-19T05:49:16.380Z,1.4
2023-01-19T05:55:34.985Z,1.4
2023-01-19T05:59:53.460Z,1.4
2023-01-19T06:05:03.793Z,1.4
2023-01-19T06:09:42.102Z,1.4
2023-01-19T06:14:48.490Z,1.4
2023-01-19T06:19:55.028Z,1.3
2023-01-19T06:25:21.312Z,1.3
2023-01-19T06:30:07.661Z,1.3
2023-01-19T06:35:38.542Z,1.3
2023-01-19T06:40:20.830Z,1.3
2023-01-19T06:45:27.366Z,1.3
2023-01-19T06:50:33.816Z,1.3
2023-01-19T06:55:40.225Z,1.3
2023-01-19T07:00:46.640Z,1.3
2023-01-19T07:05:52.959Z,1.3
2023-01-19T07:16:07.347Z,1.3
2023-01-19T07:21:12.095Z,1.3
2023-01-19T07:26:18.562Z,1.3
2023-01-19T07:31:25.158Z,1.3
2023-01-19T07:36:31.382Z,1.3
2023-01-19T07:41:57.932Z,1.3
2023-01-19T07:47:08.310Z,1.4
2023-01-19T07:51:51.212Z,1.4
2023-01-19T07:56:57.613Z,1.4
2023-01-19T08:02:04.257Z,1.4
2023-01-19T08:07:10.927Z,1.4
2023-01-19T08:12:17.323Z,1.5
2023-01-19T08:17:23.816Z,1.5
2023-01-19T08:22:54.239Z,1.5
2023-01-19T08:27:36.574Z,1.5
2023-01-19T08:32:43.025Z,1.5
2023-01-19T08:39:01.474Z,1.5
2023-01-19T08:42:55.721Z,1.6
2023-01-19T08:48:26.209Z,1.6
2023-01-19T08:53:08.531Z,1.6
2023-01-19T08:58:14.983Z,1.7
2023-01-19T09:03:21.399Z,1.7
2023-01-19T09:08:27.768Z,1.8
2023-01-19T09:13:54.217Z,1.8
2023-01-19T09:28:53.399Z,2.0
2023-01-19T09:33:59.913Z,2.0
2023-01-19T09:39:06.372Z,2.1
2023-01-19T09:44:12.839Z,2.1
2023-01-19T09:49:19.695Z,2.2
2023-01-19T09:54:26.091Z,2.2
2023-01-19T09:59:32.541Z,2.3
2023-01-19T10:04:38.874Z,2.4
2023-01-19T10:09:49.258Z,2.5
2023-01-19T10:14:51.658Z,2.5
2023-01-19T10:19:58.022Z,2.6
2023-01-19T10:25:04.397Z,2.7
2023-01-19T10:30:10.915Z,2.7
2023-01-19T10:35:17.175Z,2.8
2023-01-19T10:43:11.944Z,2.8
2023-01-19T10:45:30.036Z,2.9
2023-01-19T10:50:36.415Z,3.0
2023-01-19T10:55:42.789Z,3.1
2023-01-19T11:01:09.430Z,3.2
2023-01-19T11:06:19.758Z,3.3
2023-01-19T11:11:26.136Z,3.5
2023-01-19T11:16:32.584Z,3.6
2023-01-19T11:21:34.900Z,3.6
2023-01-19T11:26:21.393Z,3.7
2023-01-19T11:31:28.196Z,3.8
2023-01-19T11:36:34.427Z,4.0
2023-01-19T11:41:40.840Z,4.2
2023-01-19T11:46:49.898Z,4.6
2023-01-19T11:52:17.585Z,5.1
2023-01-19T11:56:59.896Z,5.7
2023-01-19T12:02:06.300Z,6.3
2023-01-19T12:07:56.905Z,6.8
2023-01-19T12:12:19.196Z,7.3
2023-01-19T12:22:31.051Z,8.2
2023-01-19T12:27:38.485Z,8.7
2023-01-19T12:32:34.989Z,9.1
2023-01-19T12:38:11.253Z,9.6
2023-01-19T12:42:57.611Z,9.8
2023-01-19T12:48:17.976Z,10.1
2023-01-19T12:53:34.384Z,10.3
2023-01-19T12:58:16.856Z,10.5
2023-01-19T13:03:23.226Z,10.6
2023-01-19T13:08:29.620Z,10.7
2023-01-19T13:13:36.005Z,10.6
2023-01-19T13:18:42.361Z,10.6
2023-01-19T13:23:48.738Z,10.6
2023-01-19T13:28:55.380Z,10.6
2023-01-19T13:34:01.755Z,10.6
2023-01-19T13:39:08.145Z,10.5
2023-01-19T13:44:14.536Z,10.5
2023-01-19T13:49:20.888Z,10.4
2023-01-19T13:54:27.272Z,10.4
2023-01-19T14:05:00.051Z,10.3
2023-01-19T14:09:46.425Z,10.3
2023-01-19T14:15:12.888Z,10.2
2023-01-19T14:19:59.362Z,10.1
2023-01-19T14:25:05.929Z,10.1
2023-01-19T14:30:12.080Z,9.9
2023-01-19T14:35:18.529Z,9.8
2023-01-19T14:40:44.879Z,9.6
2023-01-19T14:45:55.280Z,9.5
2023-01-19T14:51:03.518Z,9.4
2023-01-19T15:00:50.744Z,9.3
2023-01-19T15:07:09.125Z,9.2
2023-01-19T15:11:03.342Z,9.2
2023-01-19T15:16:09.732Z,9.1
2023-01-19T15:21:16.101Z,9.0
2023-01-19T15:31:29.067Z,8.6
2023-01-19T15:36:35.493Z,8.4
2023-01-19T15:41:41.956Z,8.1
2023-01-19T15:47:47.423Z,7.8
2023-01-19T15:51:54.704Z,7.6
2023-01-19T15:57:01.114Z,7.3
2023-01-19T16:02:07.625Z,7.1
2023-01-19T16:07:13.927Z,6.8
2023-01-19T16:12:44.488Z,6.6
2023-01-19T16:17:26.819Z,6.3
2023-01-19T16:22:33.203Z,6.1
2023-01-19T16:27:39.594Z,5.8
2023-01-19T16:32:46.001Z,5.6
2023-01-19T16:38:16.405Z,5.4
2023-01-19T16:42:58.742Z,5.2
2023-01-19T16:48:29.377Z,5.0
2023-01-19T16:53:11.817Z,4.9
2023-01-19T16:58:42.230Z,4.7
2023-01-19T17:03:25.132Z,4.5
2023-01-19T17:08:31.592Z,4.4
2023-01-19T17:13:37.945Z,4.3
2023-01-19T17:19:28.391Z,4.1
2023-01-19T17:23:50.727Z,4.0
2023-01-19T17:28:57.202Z,3.9
2023-01-19T17:34:23.829Z,3.8
2023-01-19T17:39:10.401Z,3.6
2023-01-19T17:44:16.862Z,3.5
2023-01-19T17:49:47.355Z,3.5
2023-01-19T17:54:29.728Z,3.4
2023-01-19T18:04:37.061Z,3.2
2023-01-19T18:04:43.071Z,3.2
2023-01-19T18:09:40.534Z,3.1
2023-01-19T18:14:46.898Z,3.0
2023-01-19T18:20:03.297Z,3.0
2023-01-19T18:25:09.713Z,2.9
2023-01-19T18:30:16.071Z,2.8
2023-01-19T18:35:22.453Z,2.8
2023-01-19T18:40:28.865Z,2.7
2023-01-19T18:45:35.283Z,2.6
2023-01-19T18:50:41.838Z,2.6
2023-01-19T18:55:48.944Z,2.5
2023-01-19T19:00:54.645Z,2.5
2023-01-19T19:07:33.187Z,2.4
2023-01-19T19:11:27.428Z,2.3
2023-01-19T19:16:13.853Z,2.3
2023-01-19T19:21:20.134Z,2.2
2023-01-19T19:26:50.585Z,2.2
2023-01-19T19:31:52.909Z,2.1
2023-01-19T19:37:23.388Z,2.0
2023-01-19T19:42:05.751Z,2.0
2023-01-19T19:46:52.189Z,1.9
2023-01-19T19:52:18.557Z,1.8
2023-01-19T19:57:04.926Z,1.8
2023-01-19T20:03:23.439Z,1.7
2023-01-19T20:07:18.016Z,1.6
2023-01-19T20:12:24.216Z,1.5
2023-01-19T20:17:54.848Z,1.5
2023-01-19T20:22:37.402Z,1.4
2023-01-19T20:27:45.037Z,1.3
2023-01-19T20:34:02.283Z,1.3
2023-01-19T20:37:56.580Z,1.2
2023-01-19T20:43:26.980Z,1.1
2023-01-19T20:48:33.354Z,1.1
2023-01-19T20:53:05.772Z,1.0
2023-01-19T20:58:22.143Z,1.0
2023-01-19T21:03:52.557Z,0.9
2023-01-19T21:08:54.944Z,0.9
2023-01-19T21:13:41.276Z,0.9
2023-01-19T21:18:47.671Z,0.9
2023-01-19T21:23:54.062Z,0.9
2023-01-19T21:29:00.694Z,0.9
2023-01-19T21:34:31.171Z,0.9
2023-01-19T21:39:15.355Z,0.9
2023-01-19T21:44:44.503Z,0.9
2023-01-19T21:49:26.822Z,0.9
2023-01-19T21:54:33.207Z,0.9
2023-01-19T22:04:46.023Z,0.9
2023-01-19T22:05:40.066Z,0.9
2023-01-19T22:10:52.463Z,0.9
2023-01-19T22:14:58.758Z,0.9
2023-01-19T22:20:05.162Z,1.0
2023-01-19T22:25:11.884Z,0.9
2023-01-19T22:31:02.049Z,0.9
2023-01-19T22:36:08.365Z,1.0
2023-01-19T22:40:30.647Z,1.0
2023-01-19T22:45:37.105Z,0.9
2023-01-19T22:50:43.464Z,1.0
2023-01-19T22:56:09.887Z,1.0
2023-01-19T23:00:56.401Z,1.0
2023-01-19T23:06:02.616Z,1.0
2023-01-19T23:11:09.119Z,1.0
2023-01-19T23:16:15.691Z,1.0
2023-01-19T23:26:28.501Z,1.0
2023-01-19T23:31:55.129Z,1.0
2023-01-19T23:37:01.490Z,1.0
2023-01-19T23:41:47.880Z,1.0
2023-01-19T23:46:54.247Z,1.0
2023-01-19T23:53:00.796Z,1.0
2023-01-19T23:56:56.994Z,1.0
